createdAt,value
2023-03-23T16:02:52.767Z,71.04
2023-03-23T16:07:54.566Z,71.27
2023-03-23T16:12:56.382Z,71.73
2023-03-23T16:17:57.941Z,71.92
2023-03-23T16:22:59.989Z,71.90
2023-03-23T16:28:02.067Z,71.95
2023-03-23T16:33:03.623Z,72.31
2023-03-23T16:38:07.340Z,72.41
2023-03-23T16:43:11.194Z,72.40
2023-03-23T16:48:16.926Z,72.66
2023-03-23T16:53:18.938Z,73.12
2023-03-23T16:58:20.797Z,73.90
2023-03-23T17:03:22.847Z,74.60
2023-03-23T17:08:24.504Z,74.96
2023-03-23T17:13:27.910Z,75.65
2023-03-23T17:18:29.551Z,76.30
2023-03-23T17:23:31.123Z,76.58
2023-03-23T17:28:32.734Z,76.94
2023-03-23T17:33:34.435Z,77.17
2023-03-23T17:38:35.936Z,77.38
2023-03-23T17:43:40.750Z,77.51
2023-03-23T17:48:42.369Z,78.03
2023-03-23T17:53:44.018Z,78.31
2023-03-23T17:58:45.751Z,78.59
2023-03-23T18:03:47.315Z,78.75
2023-03-23T18:08:48.890Z,79.04
2023-03-23T18:13:50.471Z,79.09
2023-03-23T18:18:52.122Z,79.50
2023-03-23T18:23:59.133Z,79.71
2023-03-23T18:29:01.829Z,80.05
2023-03-23T18:34:03.385Z,80.21
2023-03-23T18:39:06.135Z,80.35
2023-03-23T18:44:07.760Z,80.59
2023-03-23T18:49:09.757Z,80.87
2023-03-23T18:54:11.285Z,80.99
2023-03-23T18:59:12.971Z,81.39
2023-03-23T19:04:14.815Z,81.97
2023-03-23T19:09:17.018Z,82.46
2023-03-23T19:14:19.347Z,83.02
2023-03-23T19:19:21.779Z,83.55
2023-03-23T19:24:23.320Z,83.99
2023-03-23T19:29:27.458Z,84.27
2023-03-23T19:34:30.563Z,84.79
2023-03-23T19:39:32.659Z,85.17
2023-03-23T19:44:34.904Z,85.35
2023-03-23T19:49:36.702Z,85.57
2023-03-23T19:54:39.030Z,85.77
2023-03-23T19:59:40.978Z,85.81
2023-03-23T20:04:43.235Z,85.86
2023-03-23T20:09:45.059Z,86.15
2023-03-23T20:14:47.130Z,86.16
2023-03-23T20:19:48.865Z,86.34
2023-03-23T20:24:50.510Z,86.69
2023-03-23T20:29:53.453Z,86.64
2023-03-23T20:34:56.966Z,86.78
2023-03-23T20:39:58.523Z,86.98
2023-03-23T20:45:01.275Z,87.32
2023-03-23T20:50:04.713Z,87.39
2023-03-23T20:55:08.186Z,88.03
2023-03-23T21:00:16.177Z,87.83
2023-03-23T21:05:17.771Z,87.96
2023-03-23T21:10:19.354Z,88.25
2023-03-23T21:15:21.478Z,88.77
2023-03-23T21:20:24.213Z,88.57
2023-03-23T21:25:34.076Z,88.84
2023-03-23T21:30:37.430Z,89.16
2023-03-23T21:35:39.885Z,89.34
2023-03-23T21:40:44.424Z,89.49
2023-03-23T21:45:46.381Z,90.07
2023-03-23T21:50:48.334Z,90.09
2023-03-23T21:55:54.625Z,90.00
2023-03-23T22:00:56.604Z,90.40
2023-03-23T22:05:59.669Z,90.22
2023-03-23T22:11:04.501Z,90.22
2023-03-23T22:16:09.625Z,90.25
2023-03-23T22:21:12.724Z,90.07
2023-03-23T22:26:16.303Z,90.07
2023-03-23T22:31:21.937Z,89.85
2023-03-23T22:36:25.854Z,90.05
2023-03-23T22:41:33.842Z,89.95
2023-03-23T22:46:35.834Z,89.93
2023-03-23T22:51:37.909Z,89.95
2023-03-23T22:56:39.815Z,90.26
2023-03-23T23:01:48.209Z,90.64
2023-03-23T23:07:00.399Z,90.88
2023-03-23T23:12:13.886Z,91.23
2023-03-23T23:17:15.665Z,91.14
2023-03-23T23:22:19.448Z,91.76
2023-03-23T23:27:21.431Z,91.96
2023-03-23T23:32:23.062Z,92.30
2023-03-23T23:37:24.588Z,92.79
2023-03-23T23:42:26.681Z,93.01
2023-03-23T23:47:28.460Z,93.30
2023-03-23T23:52:30.101Z,93.51
2023-03-23T23:57:31.621Z,93.50
